Bettendorf, IA (52722)

2:26 AM CST on November 18, 2017 (GMT -0600)
Central Bettendorf | | Change Station
Active Advisory: Special Statement

Elev 665 ft 41.53 °N, 90.50 °W | Updated 3 seconds ago

Fog
Fog
45.3 °F
Feels Like 45 °F
N
0.0
Wind Variable Wind from North
Gusts 0.0 mph

Today
High -- | Low -- °F
--% Chance of Precip.
Yesterday
High -- | Low -- °F
Precip. -- in
Pressure 29.52 in
Visibility 3.0 miles
Clouds Overcast 400 ft
Windchill 45 °F
Dew Point 27 °F
Humidity 49%
Rainfall 0.00 in
Snow Depth Not available.
6:54 AM 4:39 PM
Waning Crescent, 0% visible
SPECI KMLI 180804Z AUTO 00000KT 3SM BR OVC004 08/06 A2952 RMK AO2 T00780061
Pressure 29.52 in
Visibility 3.0 miles
Clouds Overcast 400 ft
Windchill 45 °F
Dew Point 27 °F
Humidity 49%
Rainfall 0.00 in
Snow Depth Not available.
6:54 AM 4:39 PM
Waning Crescent, 0% visible
SPECI KMLI 180804Z AUTO 00000KT 3SM BR OVC004 08/06 A2952 RMK AO2 T00780061

Get Your Daily Forecast Email!

Thanks for signing up!

Be on the lookout for a verification email in your inbox.

You'll start receiving severe weather alerts in your inbox..

×

10-Day Weather Forecast

Almanac

Astronomy

Nov. 18, 2017 Rise Set
Actual Time
Civil Twilight
Nautical Twilight
Astronomical Twilight
Moon
Length of Visible Light
Length of Day
Tomorrow will be .
, % of the Moon is Illuminated

Today's Extremes

State Highs State Lows

Community

WunderPhotos

Category 6

Welcome to Category 6. This is the collective home for Weather Underground's featured writeups by Dr. Jeff Masters (right), Bob Henson (left), Chris Burt, and other regular contributors.

Nearby

Air Quality

  Air Quality AQ Index Pollutant
Not available.

Snow Depth

Station Depth Elevation

Earthquake Activity

City Distance Mag. Time & Date
Minimum magnitude displayed is 2.5.

Coastal Water Temperatures

Place Temperature

Stations

Nearby Weather Stations

Station Location Temp. Windchill Dew Point Humidity Wind Precip. Elev Updated Type
                   

Watches & Warnings

Special Statement
Issued: 9:39 PM CST Nov. 17, 2017 – National Weather Service

... Fog is developing... may be locally dense until 4 am...

Areas of fog is increasing in coverage across the region with a half
to 2 miles in visibility common by midnight. Localized dense fog is
possible with reduced visibilities down to a few hundred yards at times.
The fog combined with drizzle and light rain will make for defensive
driving conditions across the region. Motorists should allow for extra
distance behind any vehicles and plan for rapidly changing visibilities.

Visibilities will improve from north to south by 4 am as colder air
moves in and increasing northerly winds.


Nichols